Latest Weather Observations for Ballera

IDQ60801

Issued at 2:12 pm EST Thursday 13 December 2018 (issued every 10 minutes, with the page automatically refreshed every 10 minutes)

About weather observations | Map of weather stations | Latest weather observations for QLD | Other Formats
Station Details ID: 045009 Name: BALLERA GAS FIELD Lat: -27.40 Lon: 141.81 Height: 114.5 m
Data from the previous 72 hours. | See also: Recent months at Ballera
Date/Time
EST
Temp
°C
App
Temp
°C
Dew
Point
°C
Rel
Hum
%
Delta-T
°C
Wind Press
QNH
hPa
Press
MSL
hPa
Rain since
9am
mm
Dir  Spd
km/h
Gust
km/h
Spd
kts
Gust
kts
13/02:00pm 34.0 25.7 9.3 22 14.2 WSW 43 56 23 30 1003.2 1002.3 0.0
13/01:33pm 34.0 27.2 10.6 24 13.7 SW 37 56 20 30 1003.3 1002.4 0.0
13/01:30pm 34.8 27.6 10.6 23 14.2 WSW 39 56 21 30 1003.4 1002.5 0.0
13/01:29pm 34.8 28.0 10.6 23 14.2 WSW 37 56 20 30 1003.3 1002.4 0.0
13/01:00pm 33.6 26.1 10.9 25 13.3 SW 41 56 22 30 1003.9 1003.0 0.0
13/12:32pm 34.5 27.4 11.0 24 13.8 WSW 39 67 21 36 1003.9 1003.0 0.0
13/12:30pm 33.7 27.0 10.9 25 13.4 WSW 37 54 20 29 1003.9 1003.0 0.0
13/12:00pm 33.8 26.7 11.0 25 13.4 SW 39 54 21 29 1004.2 1003.3 0.0
13/11:30am 33.8 26.1 11.6 26 13.1 SW 43 52 23 28 1004.5 1003.6 0.0
13/11:00am 33.1 26.7 12.1 27 12.5 SW 37 54 20 29 1004.2 1003.3 0.0
13/10:30am 33.3 26.8 12.9 29 12.3 SW 39 50 21 27 1004.0 1003.1 0.0
13/10:00am 33.9 28.1 12.8 28 12.8 WSW 35 48 19 26 1004.1 1003.2 0.0
13/09:57am 33.5 28.0 12.5 28 12.6 WSW 33 48 18 26 1004.1 1003.2 0.0
13/09:30am 31.4 29.0 14.5 35 10.4 SW 20 26 11 14 1004.2 1003.3 0.0
13/09:10am 30.4 28.8 14.9 39 9.5 SW 17 22 9 12 1004.3 1003.4 0.0
13/09:00am 29.8 28.6 15.1 40 9.1 SSW 15 22 8 12 1004.2 1003.3 0.4
13/08:30am 27.6 26.8 17.2 53 6.5 SSE 17 22 9 12 1004.0 1003.1 0.2
13/08:25am 27.2 26.7 17.7 56 6.0 SSE 17 22 9 12 1004.0 1003.1 0.2
13/08:09am 25.9 26.0 18.3 63 4.8 E 15 26 8 14 1004.2 1003.3 0.2
13/08:00am 25.5 25.3 18.4 65 4.5 ENE 17 22 9 12 1003.0 1002.1 0.2
13/07:57am 25.4 24.7 18.3 65 4.5 ENE 19 24 10 13 1003.0 1002.1 0.2
13/07:55am 25.3 24.5 18.5 66 4.3 E 20 24 11 13 1002.9 1002.0 0.2
13/07:42am 25.3 25.4 17.5 62 4.9 WSW 13 26 7 14 1003.8 1002.9 0.2
13/07:30am 25.8 20.0 16.1 55 6.0 SW 41 50 22 27 1006.0 1005.2 0.2
13/07:03am 27.7 20.0 13.3 41 8.5 SW 46 65 25 35 1006.5 1005.7 0.2
13/07:00am 27.7 19.1 12.9 40 8.7 SW 50 69 27 37 1006.5 1005.7 0.2
13/06:56am 27.7 18.5 13.3 41 8.5 WSW 54 72 29 39 1006.5 1005.7 0.2
13/06:50am 28.0 19.6 13.5 41 8.6 WSW 50 72 27 39 1006.5 1005.7 0.2
13/06:48am 28.0 20.5 13.9 42 8.4 W 46 72 25 39 1006.4 1005.6 0.2
13/06:41am 26.7 25.0 19.8 66 4.5 WNW 28 56 15 30 1006.3 1005.5 0.2
13/06:30am 27.0 26.7 20.3 66 4.4 WNW 22 28 12 15 1005.2 1004.3 0.2
13/06:00am 27.6 27.1 19.1 59 5.5 NW 20 26 11 14 1004.0 1003.1 0.2
13/05:30am 27.2 26.8 19.0 61 5.3 N 19 24 10 13 1003.0 1002.1 0.2
13/05:00am 27.0 25.7 19.1 62 5.1 N 24 30 13 16 1002.3 1001.5 0.2
13/04:30am 27.2 25.9 19.0 61 5.3 NNE 24 33 13 18 1001.9 1001.1 0.2
13/04:00am 27.5 25.4 19.0 59 5.5 NNE 28 35 15 19 1002.1 1001.3 0.2
13/03:30am 27.6 25.2 19.1 59 5.5 NNE 30 37 16 20 1002.2 1001.4 0.2
13/03:00am 27.8 25.4 19.1 59 5.7 NNE 30 35 16 19 1002.2 1001.4 0.2
13/02:30am 28.0 25.6 19.0 58 5.8 NNE 30 37 16 20 1002.1 1001.3 0.2
13/02:00am 28.3 26.1 18.7 56 6.2 NNE 28 35 15 19 1002.1 1001.3 0.2
13/01:30am 28.6 26.4 18.7 55 6.4 NNE 28 37 15 20 1002.5 1001.7 0.2
13/01:00am 28.8 27.4 18.9 55 6.4 NE 24 32 13 17 1002.9 1002.0 0.2
13/12:30am 29.3 27.0 18.4 51 7.0 NE 28 35 15 19 1003.0 1002.1 0.2
13/12:00am 30.6 28.3 17.7 46 8.3 NE 26 33 14 18 1003.4 1002.5 0.2
 
Date/Time
EST
Temp
°C
App
Temp
°C
Dew
Point
°C
Rel
Hum
%
Delta-T
°C
Wind Press
QNH
hPa
Press
MSL
hPa
Rain since
9am
mm
Dir  Spd
km/h
Gust
km/h
Spd
kts
Gust
kts
12/11:30pm 31.5 29.3 17.0 41 9.2 NE 24 32 13 17 1003.6 1002.7 0.2
12/11:00pm 31.9 29.6 16.6 39 9.7 ENE 24 30 13 16 1003.8 1002.9 0.2
12/10:30pm 32.5 29.9 15.9 36 10.4 NE 24 30 13 16 1003.6 1002.7 0.2
12/10:00pm 33.7 29.7 15.2 33 11.6 NNE 30 39 16 21 1003.2 1002.3 0.2
12/09:30pm 35.3 29.8 13.5 27 13.4 NNE 35 59 19 32 1002.8 1001.9 0.2
12/09:24pm 35.1 31.2 13.3 27 13.3 NE 26 52 14 28 1002.2 1001.4 0.2
12/09:00pm 37.0 35.7 11.1 21 15.5 W 9 17 5 9 1002.2 1001.4 0.2
12/08:30pm 36.2 33.9 11.8 23 14.6 NW 15 20 8 11 1001.6 1000.8 0.2
12/08:00pm 36.1 33.4 11.7 23 14.7 N 17 20 9 11 1001.1 1000.3 0.2
12/07:30pm 36.7 33.0 11.5 22 15.1 N 22 32 12 17 1000.7 999.9 0.2
12/07:00pm 37.7 33.6 10.1 19 16.3 N 22 30 12 16 1000.9 1000.1 0.2
12/06:30pm 36.9 30.2 12.4 23 14.9 N 39 56 21 30 1000.5 999.7 0.2
12/06:20pm 38.3 32.2 10.6 19 16.5 NW 33 57 18 31 1000.4 999.6 0.2
12/06:15pm 38.7 33.2 9.3 17 17.2 WNW 28 50 15 27 1000.3 999.5 0.2
12/06:00pm 39.2 31.4 6.8 14 18.4 WNW 37 61 20 33 999.8 999.0 0.2
12/05:56pm 38.8 30.1 8.5 16 17.5 NW 44 63 24 34 999.9 999.1 0.2
12/05:54pm 38.6 29.9 8.3 16 17.4 NW 44 63 24 34 999.8 999.0 0.2
12/05:51pm 37.9 29.6 9.5 18 16.6 NW 43 63 23 34 1000.0 999.2 0.2
12/05:33pm 38.9 31.9 8.5 16 17.6 WNW 35 54 19 29 999.5 998.7 0.0
12/05:30pm 38.3 33.0 9.8 18 16.7 WNW 28 46 15 25 999.7 998.9 0.0
12/05:00pm 40.2 39.3 11.3 18 17.6 ENE 7 13 4 7 999.2 998.4 0.0
12/04:36pm 37.3 32.1 12.7 23 15.0 NW 32 72 17 39 999.8 999.0 0.0
12/04:34pm 37.1 29.1 10.4 20 15.7 WNW 43 76 23 41 1000.2 999.4 0.0
12/04:32pm 38.5 32.7 15.0 25 14.9 WNW 39 76 21 41 999.9 999.1 0.0
12/04:30pm 38.7 32.0 10.9 19 16.6 WNW 37 76 20 41 999.8 999.0 0.0
12/04:28pm 37.9 31.8 11.8 21 15.8 NW 35 76 19 41 999.9 999.1 0.0
12/04:26pm 37.7 32.8 13.7 24 14.9 NW 32 76 17 41 999.3 998.5 0.0
12/04:25pm 40.1 35.4 12.1 19 17.1 NW 28 67 15 36 999.1 998.3 0.0
12/04:00pm 43.2 36.1 6.4 11 21.1 NW 33 50 18 27 999.4 998.6 0.0
12/03:34pm 44.0 36.9 5.6 10 21.8 NW 32 50 17 27 999.5 998.7 0.0
12/03:30pm 43.0 35.8 4.9 10 21.3 NW 32 46 17 25 999.8 999.0 0.0
12/03:04pm 42.7 34.8 4.6 10 21.2 WNW 35 65 19 35 1000.4 999.6 0.0
12/03:00pm 43.5 35.8 5.2 10 21.6 WNW 35 48 19 26 1000.4 999.6 0.0
12/02:30pm 43.7 37.3 5.4 10 21.6 NNW 28 39 15 21 1000.7 999.9 0.0
12/02:13pm 43.3 34.8 5.1 10 21.4 WNW 39 56 21 30 1001.0 1000.2 0.0
12/02:08pm 43.6 36.0 3.8 9 21.9 WNW 33 56 18 30 1001.0 1000.2 0.0
12/02:00pm 43.3 36.1 5.1 10 21.5 WNW 32 44 17 24 1001.2 1000.4 0.0
12/01:30pm 42.6 36.0 5.9 11 20.8 NW 30 50 16 27 1001.7 1000.9 0.0
12/01:22pm 42.7 35.8 4.6 10 21.2 NW 30 50 16 27 1001.8 1001.0 0.0
12/01:00pm 42.2 36.2 6.9 12 20.3 NW 28 41 15 22 1002.2 1001.4 0.0
12/12:34pm 42.7 37.0 8.4 13 20.1 NW 28 46 15 25 1002.4 1001.6 0.0
12/12:30pm 43.4 37.6 7.8 12 20.7 NW 28 39 15 21 1002.7 1001.8 0.0
12/12:00pm 41.6 35.5 9.7 15 19.0 NW 32 46 17 25 1003.2 1002.3 0.0
12/11:30am 42.2 35.7 10.2 15 19.2 NW 35 48 19 26 1003.5 1002.6 0.0
12/11:00am 42.0 35.7 11.0 16 18.8 NNW 35 48 19 26 1003.8 1002.9 0.0
12/10:30am 40.9 33.8 11.0 17 18.0 NW 39 48 21 26 1004.0 1003.1 0.0
12/10:00am 40.4 33.6 13.1 20 17.0 NW 41 54 22 29 1004.2 1003.3 0.0
12/09:30am 39.4 32.6 13.0 21 16.3 NNW 41 50 22 27 1004.3 1003.4 0.0
12/09:00am 38.6 31.6 13.8 23 15.5 NW 43 59 23 32 1004.5 1003.6 0.0
12/08:30am 38.1 31.4 13.3 22 15.3 NNW 41 56 22 30 1004.6 1003.7 0.0
12/08:00am 37.5 32.0 10.7 20 15.9 N 30 39 16 21 1004.7 1003.8 0.0
12/07:30am 35.2 29.1 8.1 19 15.3 N 30 39 16 21 1004.4 1003.5 0.0
12/07:00am 33.6 29.2 7.6 20 14.5 N 20 24 11 13 1004.5 1003.6 0.0
12/06:30am 31.8 28.0 7.5 22 13.4 N 17 24 9 13 1004.3 1003.4 0.0
12/06:00am 30.6 27.4 8.3 25 12.4 NNE 15 19 8 10 1003.9 1003.0 0.0
12/05:30am 30.2 26.2 6.8 23 12.6 NE 17 20 9 11 1003.8 1002.9 0.0
12/05:00am 30.1 26.7 6.1 22 12.8 ENE 13 15 7 8 1004.0 1003.1 0.0
12/04:30am 29.8 26.4 5.8 22 12.7 ESE 13 15 7 8 1003.8 1002.9 0.0
12/04:00am 30.8 27.4 6.0 21 13.3 ESE 13 15 7 8 1003.6 1002.7 0.0
12/03:30am 31.0 27.9 5.4 20 13.6 ESE 11 13 6 7 1003.5 1002.6 0.0
12/03:00am 31.3 27.9 5.7 20 13.7 ESE 13 15 7 8 1003.7 1002.8 0.0
12/02:30am 32.2 28.0 5.7 19 14.2 ESE 17 19 9 10 1003.9 1003.0 0.0
12/02:00am 32.1 28.1 4.8 18 14.4 ESE 15 17 8 9 1004.0 1003.1 0.0
12/01:30am 32.8 28.4 4.6 17 14.9 ESE 17 20 9 11 1004.2 1003.3 0.0
12/01:00am 33.3 29.4 3.2 15 15.6 ESE 13 17 7 9 1004.4 1003.5 0.0
12/12:30am 33.7 29.6 2.5 14 16.0 E 13 13 7 7 1004.6 1003.7 0.0
12/12:00am 35.3 30.1 2.7 13 17.0 ESE 19 24 10 13 1005.0 1004.1 0.0
 
Date/Time
EST
Temp
°C
App
Temp
°C
Dew
Point
°C
Rel
Hum
%
Delta-T
°C
Wind Press
QNH
hPa
Press
MSL
hPa
Rain since
9am
mm
Dir  Spd
km/h
Gust
km/h
Spd
kts
Gust
kts
11/11:30pm 35.6 30.1 1.8 12 17.3 SSE 20 24 11 13 1005.0 1004.1 0.0
11/11:00pm 36.0 31.1 2.1 12 17.6 S 17 19 9 10 1005.1 1004.2 0.0
11/10:30pm 37.0 34.2 2.9 12 17.9 WSW 7 9 4 5 1005.2 1004.3 0.0
11/10:00pm 37.8 34.3 1.0 10 18.9 WSW 9 9 5 5 1005.3 1004.4 0.0
11/09:30pm 39.0 37.3 1.9 10 19.4 CALM 0 0 0 0 1005.3 1004.4 0.0
11/09:00pm 37.9 36.1 1.0 10 19.0 CALM 0 7 0 4 1005.3 1004.4 0.0
11/08:30pm 38.6 36.9 1.6 10 19.2 CALM 0 0 0 0 1005.2 1004.3 0.0
11/08:00pm 39.5 36.5 0.8 9 20.0 WSW 6 7 3 4 1005.0 1004.1 0.0
11/07:30pm 40.1 36.6 1.2 9 20.3 WSW 9 13 5 7 1004.9 1004.0 0.0
11/07:00pm 40.8 37.5 0.1 8 21.0 WSW 7 11 4 6 1004.7 1003.8 0.0
11/06:30pm 41.6 38.0 0.7 8 21.3 NW 9 15 5 8 1004.6 1003.7 0.0
11/06:00pm 41.7 37.7 0.8 8 21.4 NW 11 20 6 11 1004.4 1003.5 0.0
11/05:30pm 42.8 39.4 -0.3 7 22.3 SE 7 17 4 9 1004.3 1003.4 0.0
11/05:00pm 41.5 36.8 0.6 8 21.4 S 15 24 8 13 1004.3 1003.4 0.0
11/04:30pm 41.8 38.2 0.8 8 21.4 SSW 9 17 5 9 1004.4 1003.5 0.0
11/04:00pm 42.2 37.2 1.1 8 21.7 SSW 17 24 9 13 1004.8 1003.9 0.0
11/03:30pm 42.4 37.8 1.3 8 21.7 W 15 24 8 13 1005.0 1004.1 0.0
11/03:00pm 42.2 37.5 1.1 8 21.7 S 15 22 8 12 1005.4 1004.5 0.0
11/02:30pm 42.7 38.5 1.5 8 21.9 W 13 28 7 15 1005.9 1005.1 0.0
11/02:00pm 42.2 39.1 1.1 8 21.7 WSW 7 13 4 7 1006.4 1005.6 0.0
11/01:30pm 41.5 36.1 2.3 9 20.9 NW 20 32 11 17 1007.0 1006.2 0.0
11/01:00pm 40.6 35.6 1.6 9 20.5 NNW 17 28 9 15 1007.4 1006.6 0.0
11/12:30pm 40.4 35.8 1.4 9 20.4 NNW 15 28 8 15 1007.9 1007.1 0.0
11/12:00pm 39.7 34.9 2.4 10 19.8 NNW 17 28 9 15 1008.4 1007.6 0.0
11/11:30am 40.1 35.0 4.0 11 19.6 NNW 20 33 11 18 1008.8 1008.0 0.0
11/11:00am 38.9 34.8 4.4 12 18.8 NNW 15 24 8 13 1009.1 1008.3 0.0
11/10:30am 37.6 32.9 3.4 12 18.2 NNW 17 32 9 17 1009.6 1008.8 0.0
11/10:00am 36.5 32.7 3.7 13 17.4 N 13 20 7 11 1009.9 1009.1 0.0
11/09:30am 35.9 33.3 3.2 13 17.2 NE 6 15 3 8 1010.0 1009.2 0.0
11/09:00am 35.4 32.4 3.9 14 16.7 NNE 9 17 5 9 1010.3 1009.5 0.0
11/08:30am 34.9 32.5 4.4 15 16.2 ENE 6 13 3 7 1010.3 1009.5 0.0
11/08:00am 34.0 30.1 5.5 17 15.4 ESE 15 20 8 11 1009.8 1009.0 0.0
11/07:38am 32.8 29.2 6.9 20 14.2 SE 15 17 8 9 1009.8 1009.0 0.0
11/07:30am 32.3 28.4 7.2 21 13.8 SE 17 20 9 11 1009.6 1008.8 0.0
11/07:00am 30.3 24.9 8.1 25 12.3 SSE 26 32 14 17 1009.3 1008.5 0.0
11/06:30am 29.2 24.1 7.7 26 11.7 S 24 30 13 16 1009.0 1008.2 0.0
11/06:00am 28.5 25.2 8.2 28 11.1 SSE 15 17 8 9 1008.5 1007.7 0.0
11/05:30am 28.4 25.1 8.1 28 11.1 SE 15 19 8 10 1007.6 1006.8 0.0
11/05:09am 29.4 25.8 8.5 27 11.5 SE 17 24 9 13 1007.3 1006.5 0.0
11/05:00am 28.9 25.6 8.0 27 11.4 SE 15 17 8 9 1007.3 1006.5 0.0
11/04:30am 29.3 25.6 7.8 26 11.7 SE 17 20 9 11 1007.4 1006.6 0.0
11/04:00am 29.5 25.7 7.4 25 12.0 SE 17 20 9 11 1007.4 1006.6 0.0
11/03:30am 29.9 25.6 7.2 24 12.3 SSE 19 20 10 11 1007.6 1006.8 0.0
11/03:00am 30.3 26.0 6.9 23 12.7 SSE 19 20 10 11 1007.6 1006.8 0.0
11/02:30am 30.7 26.1 6.6 22 13.0 SSE 20 26 11 14 1007.8 1007.0 0.0
11/02:12am 30.8 25.2 5.3 20 13.5 SSE 24 28 13 15 1008.0 1007.2 0.0
11/02:00am 31.1 26.3 4.8 19 13.8 SSE 19 26 10 14 1008.0 1007.2 0.0
11/01:53am 31.3 25.5 4.2 18 14.1 SSE 24 30 13 16 1008.1 1007.3 0.0
11/01:30am 32.7 27.4 1.7 14 15.6 SE 19 35 10 19 1007.6 1006.8 0.0
11/01:00am 31.5 27.9 2.7 16 14.6 ENE 11 13 6 7 1007.5 1006.7 0.0
11/12:30am 31.8 28.2 2.9 16 14.7 ENE 11 13 6 7 1007.8 1007.0 0.0
11/12:00am 32.2 28.5 2.3 15 15.2 ENE 11 13 6 7 1008.1 1007.3 0.0
 
Date/Time
EST
Temp
°C
App
Temp
°C
Dew
Point
°C
Rel
Hum
%
Delta-T
°C
Wind Press
QNH
hPa
Press
MSL
hPa
Rain since
9am
mm
Dir  Spd
km/h
Gust
km/h
Spd
kts
Gust
kts
10/11:30pm 32.7 29.4 2.7 15 15.3 ENE 9 11 5 6 1008.4 1007.6 0.0
10/11:00pm 32.8 28.8 2.8 15 15.4 ENE 13 13 7 7 1008.5 1007.7 0.0
10/10:30pm 33.3 29.4 3.2 15 15.6 ENE 13 13 7 7 1008.5 1007.7 0.0
10/10:00pm 33.8 29.8 2.6 14 16.1 ENE 13 15 7 8 1008.7 1007.9 0.0
10/09:30pm 34.7 30.8 3.3 14 16.4 ENE 13 17 7 9 1008.7 1007.9 0.0
10/09:00pm 35.7 31.0 3.0 13 17.1 ENE 17 19 9 10 1008.6 1007.8 0.0
10/08:30pm 36.4 32.3 2.5 12 17.7 E 13 17 7 9 1008.3 1007.5 0.0
10/08:00pm 37.3 33.1 1.9 11 18.4 E 13 17 7 9 1008.0 1007.2 0.0
10/07:30pm 38.3 33.3 1.3 10 19.1 E 17 20 9 11 1008.0 1007.2 0.0
10/07:00pm 39.0 34.5 1.9 10 19.5 ESE 15 22 8 12 1007.7 1006.9 0.0
10/06:30pm 39.6 34.5 0.9 9 20.0 E 17 20 9 11 1007.5 1006.7 0.0
10/06:00pm 40.4 34.1 1.4 9 20.5 ESE 24 33 13 18 1007.1 1006.3 0.0
10/05:30pm 40.4 35.4 1.4 9 20.4 E 17 30 9 16 1006.8 1006.0 0.0
10/05:00pm 40.6 35.6 1.6 9 20.6 SE 17 32 9 17 1006.6 1005.8 0.0
10/04:30pm 40.6 35.1 1.6 9 20.5 ESE 20 30 11 16 1006.8 1006.0 0.0
10/04:00pm 40.4 36.2 1.4 9 20.5 ESE 13 30 7 16 1007.1 1006.3 0.0
10/03:30pm 40.7 35.8 1.7 9 20.5 SSE 17 28 9 15 1007.4 1006.6 0.0
10/03:00pm 40.2 34.2 1.3 9 20.4 SE 22 39 12 21 1007.9 1007.1 0.0
10/02:30pm 39.5 35.8 2.2 10 19.7 ESE 11 22 6 12 1008.2 1007.4 0.0

Other Formats:

Comma delimited format used in spreadsheet applications
http://www.bom.gov.au/fwo/IDQ60801/IDQ60801.95487.axf

JavaScript Object Notation format (JSON) in row-major order
http://www.bom.gov.au/fwo/IDQ60801/IDQ60801.95487.json